Time;durP1;ratioP1;P1;durP2;ratioP2;P2;SDS_P1;SDS_P2;PMS_P1;PMS_P2;Temp;Humidity;BMP_temperature;BMP_pressure;BME280_temperature;BME280_humidity;BME280_pressure;Samples;Min_cycle;Max_cycle;Signal;HPM_P1;HPM_P2
2022/12/30 00:00:44;;;;;;;;;28.00;23.60;;;;;;;;5221527;28;8796;-81
2022/12/30 00:03:15;;;;;;;;;21.00;19.00;;;;;;;;5220919;28;8816;-81
2022/12/30 00:05:46;;;;;;;;;32.60;30.20;;;;;;;;5204364;28;8792;-80
2022/12/30 00:11:07;;;;;;;;;24.80;24.40;;;;;;;;5203555;28;8942;-80
2022/12/30 00:34:30;;;;;;;;;50.80;44.60;;;;;;;;5205477;28;8797;-79
2022/12/30 00:37:01;;;;;;;;;35.60;30.20;;;;;;;;5203738;28;8789;-82
2022/12/30 00:39:32;;;;;;;;;43.40;38.00;;;;;;;;5204006;28;8796;-82
2022/12/30 00:44:53;;;;;;;;;57.80;48.60;;;;;;;;5203824;28;9542;-79
2022/12/30 00:47:24;;;;;;;;;31.75;30.25;;;;;;;;5204853;28;8797;-84
2022/12/30 00:58:23;;;;;;;;;24.20;24.00;;;;;;;;5225032;28;8907;-87
2022/12/30 01:00:55;;;;;;;;;21.80;21.40;;;;;;;;5208587;28;8814;-86
2022/12/30 01:03:26;;;;;;;;;25.20;25.20;;;;;;;;5191651;28;9526;-86
2022/12/30 01:06:15;;;;;;;;;22.00;21.00;;;;;;;;5207385;28;8840;-86
2022/12/30 01:08:46;;;;;;;;;36.50;36.50;;;;;;;;5207621;28;8796;-86
2022/12/30 01:11:17;;;;;;;;;42.50;40.50;;;;;;;;5224218;28;8915;-85
2022/12/30 01:14:06;;;;;;;;;31.40;30.00;;;;;;;;5207033;28;10013;-85
2022/12/30 01:16:55;;;;;;;;;27.80;27.80;;;;;;;;5207168;28;8803;-85
2022/12/30 01:19:26;;;;;;;;;20.40;20.40;;;;;;;;5207032;28;8800;-85
2022/12/30 01:21:57;;;;;;;;;15.25;13.50;;;;;;;;5206952;28;8861;-84
2022/12/30 01:24:28;;;;;;;;;18.60;18.60;;;;;;;;5207259;28;9674;-86
2022/12/30 01:26:59;;;;;;;;;14.20;13.80;;;;;;;;5224103;28;9505;-85
2022/12/30 01:29:34;;;;;;;;;10.40;10.40;;;;;;;;5223472;28;8910;-85
2022/12/30 01:32:06;;;;;;;;;7.40;7.00;;;;;;;;5207229;28;8784;-86
2022/12/30 01:34:38;;;;;;;;;13.80;13.00;;;;;;;;5223392;28;8842;-86
2022/12/30 01:37:09;;;;;;;;;15.60;15.60;;;;;;;;5207794;28;9562;-86
2022/12/30 01:39:41;;;;;;;;;13.40;13.20;;;;;;;;5225337;28;8820;-81
2022/12/30 01:42:18;;;;;;;;;13.40;13.40;;;;;;;;5222793;28;8838;-81
2022/12/30 01:44:49;;;;;;;;;10.60;10.60;;;;;;;;5206941;28;8923;-79
2022/12/30 01:47:35;;;;;;;;;13.80;12.80;;;;;;;;5207079;28;8915;-81
2022/12/30 01:50:06;;;;;;;;;15.60;15.60;;;;;;;;5206825;28;8788;-81
2022/12/30 01:52:39;;;;;;;;;17.60;17.60;;;;;;;;5223674;28;8819;-79
2022/12/30 01:55:41;;;;;;;;;16.40;16.20;;;;;;;;5220233;28;8911;-79
2022/12/30 01:58:15;;;;;;;;;16.00;16.00;;;;;;;;5222668;28;8812;-79
2022/12/30 02:01:05;;;;;;;;;15.40;15.40;;;;;;;;5206931;28;8796;-85
2022/12/30 02:03:44;;;;;;;;;19.40;19.00;;;;;;;;5206100;28;8846;-85
2022/12/30 02:06:19;;;;;;;;;23.20;23.00;;;;;;;;5211064;28;8899;-85
2022/12/30 02:08:51;;;;;;;;;18.60;15.00;;;;;;;;5223246;28;8785;-85
2022/12/30 02:11:22;;;;;;;;;16.40;16.40;;;;;;;;5218932;28;8804;-85
2022/12/30 02:13:54;;;;;;;;;14.60;14.60;;;;;;;;5169935;28;8874;-86
2022/12/30 02:16:44;;;;;;;;;13.00;12.00;;;;;;;;5185773;28;8792;-86
2022/12/30 02:19:37;;;;;;;;;18.80;18.00;;;;;;;;5169614;28;8772;-86
2022/12/30 02:22:08;;;;;;;;;13.80;13.80;;;;;;;;5169420;28;8919;-85
2022/12/30 02:24:51;;;;;;;;;15.50;14.50;;;;;;;;5199256;28;8824;-84
2022/12/30 02:27:41;;;;;;;;;17.00;15.60;;;;;;;;5212179;28;10690;-85
2022/12/30 02:30:21;;;;;;;;;11.20;11.20;;;;;;;;5182965;28;8923;-83
2022/12/30 02:33:05;;;;;;;;;14.40;14.40;;;;;;;;5183833;28;8828;-83
2022/12/30 02:35:45;;;;;;;;;13.80;13.40;;;;;;;;5181842;28;8816;-83
2022/12/30 02:38:20;;;;;;;;;12.80;12.20;;;;;;;;5175072;28;8802;-83
2022/12/30 02:47:18;;;;;;;;;10.00;10.00;;;;;;;;5168603;28;8803;-82
2022/12/30 02:53:42;;;;;;;;;15.40;14.60;;;;;;;;5185802;28;8867;-87
2022/12/30 02:56:32;;;;;;;;;16.80;15.60;;;;;;;;5171026;28;8819;-82
2022/12/30 03:05:11;;;;;;;;;7.40;7.40;;;;;;;;5184416;28;8859;-81
2022/12/30 03:07:45;;;;;;;;;5.60;5.60;;;;;;;;5168074;28;8824;-83
2022/12/30 03:13:31;;;;;;;;;13.80;13.80;;;;;;;;5185679;28;8829;-81
2022/12/30 03:16:44;;;;;;;;;12.60;12.60;;;;;;;;5184310;28;8792;-82
2022/12/30 03:19:17;;;;;;;;;11.60;11.60;;;;;;;;5169313;28;8787;-83
2022/12/30 03:21:51;;;;;;;;;15.60;15.60;;;;;;;;5187101;28;8791;-79
2022/12/30 03:27:34;;;;;;;;;16.00;16.00;;;;;;;;5184681;28;8903;-82
2022/12/30 03:30:06;;;;;;;;;14.20;12.60;;;;;;;;5168653;28;8811;-78
2022/12/30 03:32:37;;;;;;;;;61.60;51.60;;;;;;;;5168324;28;8788;-78
2022/12/30 03:35:08;;;;;;;;;25.00;24.20;;;;;;;;5193199;28;8820;-83
2022/12/30 03:37:51;;;;;;;;;14.00;11.60;;;;;;;;5176528;28;8867;-83
2022/12/30 03:40:29;;;;;;;;;29.60;29.60;;;;;;;;5195845;28;8826;-83
2022/12/30 03:43:01;;;;;;;;;14.60;14.60;;;;;;;;5197171;28;8817;-81
2022/12/30 03:45:32;;;;;;;;;16.20;16.20;;;;;;;;5197870;28;8819;-82
2022/12/30 03:48:21;;;;;;;;;13.80;13.00;;;;;;;;5192955;28;9476;-75
2022/12/30 03:50:52;;;;;;;;;13.00;13.00;;;;;;;;5184732;28;8827;-81
2022/12/30 03:53:23;;;;;;;;;14.20;13.00;;;;;;;;5167827;28;8830;-78
2022/12/30 03:55:54;;;;;;;;;27.00;24.00;;;;;;;;5184633;28;8806;-81
2022/12/30 03:58:25;;;;;;;;;19.00;16.00;;;;;;;;5195556;28;8819;-82
2022/12/30 04:00:56;;;;;;;;;21.40;20.20;;;;;;;;5192630;28;8783;-81
2022/12/30 04:03:46;;;;;;;;;13.20;13.20;;;;;;;;5190377;28;8823;-82
2022/12/30 04:06:17;;;;;;;;;14.60;14.60;;;;;;;;5186054;28;8921;-79
2022/12/30 04:08:48;;;;;;;;;30.60;28.00;;;;;;;;5190661;28;8775;-82
2022/12/30 04:11:19;;;;;;;;;44.20;37.00;;;;;;;;5173432;28;8791;-74
2022/12/30 04:13:51;;;;;;;;;31.20;29.00;;;;;;;;5221778;28;9677;-78
2022/12/30 04:16:22;;;;;;;;;43.40;38.00;;;;;;;;5221251;28;8922;-77
2022/12/30 04:18:53;;;;;;;;;42.00;38.40;;;;;;;;5203675;28;8939;-76
2022/12/30 04:21:25;;;;;;;;;45.60;43.40;;;;;;;;5204972;28;8865;-80
2022/12/30 04:23:56;;;;;;;;;41.60;38.00;;;;;;;;5203884;28;8820;-79
2022/12/30 04:26:45;;;;;;;;;37.80;35.40;;;;;;;;5219844;28;8796;-81
2022/12/30 04:33:39;;;;;;;;;36.60;36.60;;;;;;;;5209066;28;8756;-74
2022/12/30 04:36:10;;;;;;;;;48.00;45.50;;;;;;;;5224568;28;8796;-80
2022/12/30 04:39:00;;;;;;;;;59.40;51.80;;;;;;;;5208397;28;8798;-81
2022/12/30 04:41:31;;;;;;;;;51.60;44.80;;;;;;;;5208599;28;9551;-80
2022/12/30 04:44:03;;;;;;;;;35.80;32.40;;;;;;;;5207889;28;8805;-79
2022/12/30 04:46:33;;;;;;;;;47.80;44.60;;;;;;;;5225897;28;8784;-82
2022/12/30 04:49:05;;;;;;;;;24.00;23.60;;;;;;;;5227146;28;8819;-83
2022/12/30 04:51:36;;;;;;;;;84.60;68.40;;;;;;;;5208775;28;8787;-79
2022/12/30 04:54:07;;;;;;;;;55.50;46.50;;;;;;;;5208115;28;8784;-79
2022/12/30 04:56:38;;;;;;;;;37.40;31.80;;;;;;;;5207762;28;11411;-80
2022/12/30 04:59:09;;;;;;;;;23.20;21.80;;;;;;;;5224290;28;8776;-77
2022/12/30 05:01:40;;;;;;;;;22.40;19.00;;;;;;;;5208069;28;8780;-78
2022/12/30 05:04:29;;;;;;;;;17.40;17.00;;;;;;;;5206783;28;8828;-82
2022/12/30 05:07:00;;;;;;;;;15.20;15.20;;;;;;;;5208039;28;8784;-77
2022/12/30 05:09:32;;;;;;;;;14.20;13.20;;;;;;;;5207285;28;8796;-77
2022/12/30 05:12:03;;;;;;;;;27.00;26.20;;;;;;;;5223488;28;8840;-76
2022/12/30 05:14:34;;;;;;;;;23.00;21.20;;;;;;;;5208109;28;9500;-75
2022/12/30 05:17:05;;;;;;;;;30.60;29.60;;;;;;;;5223588;28;8861;-76
2022/12/30 05:19:36;;;;;;;;;28.40;28.40;;;;;;;;5206667;28;8800;-75
2022/12/30 05:22:07;;;;;;;;;30.20;29.20;;;;;;;;5224240;28;8781;-79
2022/12/30 05:27:55;;;;;;;;;22.20;22.20;;;;;;;;5208191;28;8792;-73
2022/12/30 05:30:26;;;;;;;;;40.40;37.20;;;;;;;;5224067;28;8807;-74
2022/12/30 05:32:58;;;;;;;;;48.20;44.80;;;;;;;;5223327;28;8866;-75
2022/12/30 05:35:29;;;;;;;;;67.40;53.20;;;;;;;;5207058;28;9557;-76
2022/12/30 05:38:00;;;;;;;;;48.80;45.40;;;;;;;;5206433;28;8789;-75
2022/12/30 05:40:31;;;;;;;;;43.40;39.00;;;;;;;;5191651;28;8792;-74
2022/12/30 05:43:02;;;;;;;;;42.50;40.25;;;;;;;;5232870;28;8844;-75
2022/12/30 05:45:33;;;;;;;;;45.40;43.00;;;;;;;;5220474;28;8792;-75
2022/12/30 05:52:29;;;;;;;;;51.00;46.80;;;;;;;;5209854;28;8728;-78
2022/12/30 06:03:11;;;;;;;;;51.60;42.60;;;;;;;;5152867;28;8824;-77
2022/12/30 06:05:42;;;;;;;;;45.80;44.20;;;;;;;;5207110;28;8784;-76
2022/12/30 06:08:13;;;;;;;;;71.40;53.40;;;;;;;;5206306;28;8824;-76
2022/12/30 06:10:45;;;;;;;;;72.00;55.00;;;;;;;;5205970;28;8914;-71
2022/12/30 06:13:16;;;;;;;;;66.40;55.60;;;;;;;;5222320;28;8836;-80
2022/12/30 06:15:47;;;;;;;;;65.75;52.50;;;;;;;;5207443;28;8946;-79
2022/12/30 06:18:37;;;;;;;;;58.20;49.60;;;;;;;;5206755;28;9341;-77
2022/12/30 06:21:08;;;;;;;;;48.60;46.00;;;;;;;;5214157;28;8952;-76
2022/12/30 06:31:59;;;;;;;;;41.20;32.80;;;;;;;;5227097;28;8758;-76
2022/12/30 06:34:30;;;;;;;;;41.60;37.40;;;;;;;;5227664;28;9509;-76
2022/12/30 06:37:01;;;;;;;;;56.80;48.40;;;;;;;;5209706;28;8797;-76
2022/12/30 06:39:32;;;;;;;;;56.40;48.40;;;;;;;;5208874;28;8785;-76
2022/12/30 06:42:04;;;;;;;;;46.80;44.60;;;;;;;;5210564;28;8785;-77
2022/12/30 06:44:35;;;;;;;;;55.20;49.60;;;;;;;;5226752;28;8789;-77
2022/12/30 06:47:06;;;;;;;;;58.20;51.20;;;;;;;;5225413;28;8777;-78
2022/12/30 06:49:37;;;;;;;;;46.20;42.00;;;;;;;;5211749;28;8798;-77
2022/12/30 06:52:08;;;;;;;;;39.80;35.80;;;;;;;;5229497;28;8793;-77
2022/12/30 06:54:39;;;;;;;;;43.40;42.00;;;;;;;;5229619;28;9507;-76
2022/12/30 06:57:12;;;;;;;;;83.25;63.25;;;;;;;;5225565;28;8765;-77
2022/12/30 06:59:43;;;;;;;;;33.40;32.00;;;;;;;;5192555;28;8818;-78
2022/12/30 07:02:15;;;;;;;;;33.80;33.80;;;;;;;;5210218;28;8880;-75
2022/12/30 07:05:05;;;;;;;;;30.20;25.40;;;;;;;;5226424;28;8798;-78
2022/12/30 07:07:37;;;;;;;;;22.40;22.40;;;;;;;;5225479;28;9473;-76
2022/12/30 07:10:08;;;;;;;;;25.40;25.40;;;;;;;;5224938;28;8774;-78
2022/12/30 07:12:40;;;;;;;;;20.60;17.60;;;;;;;;5226992;28;8817;-79
2022/12/30 07:15:11;;;;;;;;;53.00;46.80;;;;;;;;5194572;28;8797;-76
2022/12/30 07:17:42;;;;;;;;;39.00;36.80;;;;;;;;5211381;28;8789;-77
2022/12/30 07:20:31;;;;;;;;;59.40;50.00;;;;;;;;5211594;28;8816;-76
2022/12/30 07:23:03;;;;;;;;;26.40;26.40;;;;;;;;5208807;28;8801;-76
2022/12/30 07:25:34;;;;;;;;;34.00;33.40;;;;;;;;5208473;28;9453;-75
2022/12/30 07:32:28;;;;;;;;;38.80;37.00;;;;;;;;5226045;28;8816;-75
2022/12/30 07:34:59;;;;;;;;;37.60;34.60;;;;;;;;5225077;28;8831;-75
2022/12/30 07:37:30;;;;;;;;;51.60;47.00;;;;;;;;5208312;28;8785;-74
2022/12/30 07:40:02;;;;;;;;;45.40;45.00;;;;;;;;5226508;28;8812;-75
2022/12/30 07:42:34;;;;;;;;;32.00;30.00;;;;;;;;5208469;28;8782;-71
2022/12/30 07:45:05;;;;;;;;;25.80;25.00;;;;;;;;5225055;28;8812;-81
2022/12/30 07:47:36;;;;;;;;;25.20;25.20;;;;;;;;5208235;28;8777;-77
2022/12/30 07:50:26;;;;;;;;;29.20;27.40;;;;;;;;5224435;28;8798;-79
2022/12/30 07:52:58;;;;;;;;;34.20;32.20;;;;;;;;5208310;28;8789;-79
2022/12/30 07:55:29;;;;;;;;;30.00;27.60;;;;;;;;5208052;28;8804;-76
2022/12/30 07:58:02;;;;;;;;;24.40;24.00;;;;;;;;5208240;28;8754;-77
2022/12/30 08:00:33;;;;;;;;;26.60;25.00;;;;;;;;5224154;28;8821;-77
2022/12/30 08:03:04;;;;;;;;;33.20;31.80;;;;;;;;5225174;28;8805;-77
2022/12/30 08:05:35;;;;;;;;;40.60;36.40;;;;;;;;5192121;28;9376;-78
2022/12/30 08:08:07;;;;;;;;;33.25;33.00;;;;;;;;5224986;28;8785;-78
2022/12/30 08:10:38;;;;;;;;;97.50;77.25;;;;;;;;5226814;28;8867;-78
2022/12/30 08:13:09;;;;;;;;;47.00;40.00;;;;;;;;5208753;28;8826;-78
2022/12/30 08:15:40;;;;;;;;;30.60;24.80;;;;;;;;5208952;28;10174;-81
2022/12/30 08:18:11;;;;;;;;;38.50;33.75;;;;;;;;5208567;28;8785;-77
2022/12/30 08:20:42;;;;;;;;;25.50;20.25;;;;;;;;5191318;28;11171;-79
2022/12/30 08:23:14;;;;;;;;;36.40;34.80;;;;;;;;5208184;28;8829;-77
2022/12/30 08:25:48;;;;;;;;;40.20;36.60;;;;;;;;5226320;28;8831;-79
2022/12/30 08:28:19;;;;;;;;;71.00;54.80;;;;;;;;5224344;28;8782;-77
2022/12/30 08:30:50;;;;;;;;;34.25;31.50;;;;;;;;5209435;28;8802;-78
2022/12/30 08:33:24;;;;;;;;;36.25;36.25;;;;;;;;5224845;28;11596;-77
2022/12/30 08:35:59;;;;;;;;;21.40;20.40;;;;;;;;5226157;28;10305;-79
2022/12/30 08:38:30;;;;;;;;;38.20;36.40;;;;;;;;5208176;28;8794;-76
2022/12/30 08:41:11;;;;;;;;;29.40;27.80;;;;;;;;5227692;28;8789;-79
2022/12/30 08:43:45;;;;;;;;;22.20;21.80;;;;;;;;5226267;28;8804;-78
2022/12/30 08:46:35;;;;;;;;;41.80;40.00;;;;;;;;5230996;28;8782;-80
2022/12/30 08:49:06;;;;;;;;;24.60;24.60;;;;;;;;5212610;28;9627;-83
2022/12/30 08:51:38;;;;;;;;;42.60;38.00;;;;;;;;5211397;28;8786;-78
2022/12/30 08:54:10;;;;;;;;;31.00;30.40;;;;;;;;5225818;28;8782;-78
2022/12/30 08:56:41;;;;;;;;;31.00;29.60;;;;;;;;5241547;28;8774;-74
2022/12/30 09:03:11;;;;;;;;;31.80;30.40;;;;;;;;5211714;28;10261;-76
2022/12/30 09:05:42;;;;;;;;;14.60;12.20;;;;;;;;5223336;28;9508;-73
2022/12/30 09:08:13;;;;;;;;;53.50;46.25;;;;;;;;5206501;28;8804;-75
2022/12/30 09:10:45;;;;;;;;;33.20;31.80;;;;;;;;5223853;28;10763;-77
2022/12/30 09:13:36;;;;;;;;;33.60;33.20;;;;;;;;5211290;28;8790;-76
2022/12/30 09:16:08;;;;;;;;;37.80;36.20;;;;;;;;5211397;28;8900;-76
2022/12/30 09:18:39;;;;;;;;;58.60;47.00;;;;;;;;5194253;28;8788;-76
2022/12/30 09:21:29;;;;;;;;;38.20;35.20;;;;;;;;5227561;28;8896;-78
2022/12/30 09:24:00;;;;;;;;;28.40;22.60;;;;;;;;5227465;28;8820;-78
2022/12/30 09:26:31;;;;;;;;;19.80;19.80;;;;;;;;5194643;28;9528;-75
2022/12/30 09:29:03;;;;;;;;;45.80;44.20;;;;;;;;5209790;28;8843;-78
2022/12/30 09:31:34;;;;;;;;;48.40;45.20;;;;;;;;5194437;28;8805;-76
2022/12/30 09:34:05;;;;;;;;;33.40;33.00;;;;;;;;5211391;28;8797;-79
2022/12/30 09:36:36;;;;;;;;;53.00;47.00;;;;;;;;5227686;28;9488;-78
2022/12/30 09:39:07;;;;;;;;;45.50;42.50;;;;;;;;5210473;28;8782;-78
2022/12/30 09:44:58;;;;;;;;;53.60;45.40;;;;;;;;5226534;28;8817;-75
2022/12/30 09:47:30;;;;;;;;;39.00;33.40;;;;;;;;5205767;28;8842;-75
2022/12/30 09:50:26;;;;;;;;;44.20;41.80;;;;;;;;5222999;28;8897;-75
2022/12/30 09:53:03;;;;;;;;;42.80;35.80;;;;;;;;5222901;28;8777;-75
2022/12/30 09:55:54;;;;;;;;;48.80;46.40;;;;;;;;5222149;28;8926;-77
2022/12/30 09:58:45;;;;;;;;;58.40;48.60;;;;;;;;5222503;28;8792;-78
2022/12/30 10:01:16;;;;;;;;;39.40;36.20;;;;;;;;5189868;28;8780;-81
2022/12/30 10:04:11;;;;;;;;;41.80;38.60;;;;;;;;5222525;28;8824;-77
2022/12/30 10:07:02;;;;;;;;;41.80;31.60;;;;;;;;5207364;28;9472;-76
2022/12/30 10:10:10;;;;;;;;;73.40;58.60;;;;;;;;5220423;28;8927;-77
2022/12/30 10:17:39;;;;;;;;;39.60;34.60;;;;;;;;5212789;28;8613;-79
2022/12/30 10:20:39;;;;;;;;;28.20;28.20;;;;;;;;5189188;28;8781;-77
2022/12/30 10:23:28;;;;;;;;;39.60;35.60;;;;;;;;5189077;28;8812;-76
2022/12/30 10:26:14;;;;;;;;;42.80;33.60;;;;;;;;5189312;28;8776;-79
2022/12/30 10:33:26;;;;;;;;;16.00;14.80;;;;;;;;5206591;28;8709;-78
2022/12/30 10:36:01;;;;;;;;;39.20;36.00;;;;;;;;5188738;28;8788;-76
2022/12/30 10:38:32;;;;;;;;;34.00;31.00;;;;;;;;5188849;28;8796;-77
2022/12/30 10:41:06;;;;;;;;;27.80;27.80;;;;;;;;5206863;28;8788;-76
2022/12/30 10:43:55;;;;;;;;;54.40;48.60;;;;;;;;5205240;28;9588;-77
2022/12/30 10:46:37;;;;;;;;;44.40;41.80;;;;;;;;5189096;28;8779;-81
2022/12/30 10:49:17;;;;;;;;;41.00;35.80;;;;;;;;5205344;28;8792;-77
2022/12/30 10:56:16;;;;;;;;;40.40;39.40;;;;;;;;5206057;28;8705;-77
2022/12/30 10:58:47;;;;;;;;;37.20;35.60;;;;;;;;5189142;28;8855;-77
2022/12/30 11:01:19;;;;;;;;;51.75;48.00;;;;;;;;5188956;28;8797;-77
2022/12/30 11:03:52;;;;;;;;;70.00;56.40;;;;;;;;5222643;28;8831;-78
2022/12/30 11:06:24;;;;;;;;;55.60;48.40;;;;;;;;5205570;28;8788;-76
2022/12/30 11:09:24;;;;;;;;;43.40;43.20;;;;;;;;5188372;28;8808;-77
2022/12/30 11:15:20;;;;;;;;;25.80;25.40;;;;;;;;5206321;28;8821;-79
2022/12/30 11:17:53;;;;;;;;;21.20;21.00;;;;;;;;5188260;28;8780;-77
2022/12/30 11:20:24;;;;;;;;;39.00;39.00;;;;;;;;5188180;28;8812;-78
2022/12/30 11:22:59;;;;;;;;;31.00;29.40;;;;;;;;5220734;28;9511;-77
2022/12/30 11:25:43;;;;;;;;;34.00;31.60;;;;;;;;5204691;28;8796;-77
2022/12/30 11:28:16;;;;;;;;;34.60;33.80;;;;;;;;5204728;28;8808;-78
2022/12/30 11:30:53;;;;;;;;;38.40;35.40;;;;;;;;5188039;28;8811;-77
2022/12/30 11:33:28;;;;;;;;;29.20;28.60;;;;;;;;5188420;28;9705;-77
2022/12/30 11:36:13;;;;;;;;;31.80;29.20;;;;;;;;5188571;28;8799;-77
2022/12/30 11:38:48;;;;;;;;;39.40;37.40;;;;;;;;5222457;28;8804;-78
2022/12/30 11:41:19;;;;;;;;;43.40;41.20;;;;;;;;5210371;28;8799;-78
2022/12/30 11:43:50;;;;;;;;;32.50;27.25;;;;;;;;5220738;28;8824;-78
2022/12/30 11:46:22;;;;;;;;;38.25;37.00;;;;;;;;5204182;28;8910;-78
2022/12/30 11:48:56;;;;;;;;;53.40;45.60;;;;;;;;5220542;28;11566;-78
2022/12/30 11:51:47;;;;;;;;;51.80;45.60;;;;;;;;5204628;28;8773;-77
2022/12/30 11:54:21;;;;;;;;;62.60;50.00;;;;;;;;5203834;28;9491;-75
2022/12/30 11:57:27;;;;;;;;;67.40;51.60;;;;;;;;5204624;28;8826;-77
2022/12/30 12:00:16;;;;;;;;;69.00;57.00;;;;;;;;5208486;28;8776;-77
2022/12/30 12:02:49;;;;;;;;;64.00;52.25;;;;;;;;5197722;28;8874;-78
2022/12/30 12:05:19;;;;;;;;;48.60;46.40;;;;;;;;5232391;28;11558;-78
2022/12/30 12:07:53;;;;;;;;;48.50;41.00;;;;;;;;5229737;28;8791;-77
2022/12/30 12:15:13;;;;;;;;;62.80;48.60;;;;;;;;5209065;28;8945;-76
2022/12/30 12:17:44;;;;;;;;;42.40;42.20;;;;;;;;5183917;28;8799;-76
2022/12/30 12:20:28;;;;;;;;;21.50;21.50;;;;;;;;5151545;28;8779;-78
2022/12/30 12:23:05;;;;;;;;;42.00;37.80;;;;;;;;5183828;28;11520;-78
2022/12/30 12:25:40;;;;;;;;;43.40;39.40;;;;;;;;5151176;28;8790;-78
2022/12/30 12:28:12;;;;;;;;;36.00;31.40;;;;;;;;5184702;28;8783;-78
2022/12/30 12:31:06;;;;;;;;;39.80;37.20;;;;;;;;5167120;28;8787;-77
2022/12/30 12:33:45;;;;;;;;;58.60;52.40;;;;;;;;5132522;28;8821;-77
2022/12/30 12:36:22;;;;;;;;;58.60;52.40;;;;;;;;5150916;28;8787;-76
2022/12/30 12:39:01;;;;;;;;;44.00;42.20;;;;;;;;5170010;28;8806;-79
2022/12/30 12:42:09;;;;;;;;;69.40;51.60;;;;;;;;5151673;28;8791;-77
2022/12/30 12:44:59;;;;;;;;;48.20;43.60;;;;;;;;5090296;29;8829;-76
2022/12/30 12:47:50;;;;;;;;;80.80;64.00;;;;;;;;5148870;28;8791;-77
2022/12/30 12:50:21;;;;;;;;;54.40;46.00;;;;;;;;5147403;28;8873;-75
2022/12/30 12:57:18;;;;;;;;;77.20;59.40;;;;;;;;5187885;28;8708;-76
2022/12/30 13:00:07;;;;;;;;;58.40;48.60;;;;;;;;5170735;28;8783;-76
2022/12/30 13:02:41;;;;;;;;;43.20;42.40;;;;;;;;5170476;28;8775;-73
2022/12/30 13:05:15;;;;;;;;;35.20;34.80;;;;;;;;5187630;28;8949;-75
2022/12/30 13:08:06;;;;;;;;;49.60;45.80;;;;;;;;5170282;28;8822;-74
2022/12/30 13:10:37;;;;;;;;;63.00;52.20;;;;;;;;5170401;28;9454;-74
2022/12/30 13:13:28;;;;;;;;;44.00;40.50;;;;;;;;5177368;28;8843;-74
2022/12/30 13:16:06;;;;;;;;;36.00;34.00;;;;;;;;5163791;28;8765;-76
2022/12/30 13:18:41;;;;;;;;;37.80;36.40;;;;;;;;5191904;28;8851;-77
2022/12/30 13:21:16;;;;;;;;;45.80;36.80;;;;;;;;5190785;28;8789;-77
2022/12/30 13:23:53;;;;;;;;;43.80;41.20;;;;;;;;5190740;28;9479;-74
2022/12/30 13:26:43;;;;;;;;;45.40;40.00;;;;;;;;5192876;28;8781;-74
2022/12/30 13:29:19;;;;;;;;;60.60;50.60;;;;;;;;5173678;28;8812;-74
2022/12/30 13:31:56;;;;;;;;;61.80;48.00;;;;;;;;5174318;28;8777;-74
2022/12/30 13:34:52;;;;;;;;;70.20;52.00;;;;;;;;5190408;28;8777;-74
2022/12/30 13:45:57;;;;;;;;;65.20;49.40;;;;;;;;5207472;28;8749;-71
2022/12/30 13:48:33;;;;;;;;;46.80;45.20;;;;;;;;5206526;28;8863;-74
2022/12/30 13:51:05;;;;;;;;;25.40;25.40;;;;;;;;5189818;28;8808;-76
2022/12/30 13:53:36;;;;;;;;;39.20;33.60;;;;;;;;5173346;28;8777;-76
2022/12/30 14:00:33;;;;;;;;;62.00;52.60;;;;;;;;5206843;28;9042;-75
2022/12/30 14:03:22;;;;;;;;;68.60;54.60;;;;;;;;5207072;28;8773;-76
2022/12/30 14:05:54;;;;;;;;;66.20;53.20;;;;;;;;5173197;28;8769;-74
2022/12/30 14:08:45;;;;;;;;;63.60;52.00;;;;;;;;5206981;28;8797;-73
2022/12/30 14:11:17;;;;;;;;;68.00;54.20;;;;;;;;5189997;28;8797;-74
2022/12/30 14:14:06;;;;;;;;;54.40;47.40;;;;;;;;5184962;28;8866;-76
2022/12/30 14:16:43;;;;;;;;;42.20;40.40;;;;;;;;5190598;28;8783;-78
2022/12/30 14:19:30;;;;;;;;;41.00;39.00;;;;;;;;5173250;28;8945;-80
2022/12/30 14:22:38;;;;;;;;;40.60;36.40;;;;;;;;5188862;28;8784;-77
2022/12/30 14:25:28;;;;;;;;;32.60;29.80;;;;;;;;5187541;28;8803;-77
2022/12/30 14:28:00;;;;;;;;;46.20;45.20;;;;;;;;5185212;28;8779;-73
2022/12/30 14:30:34;;;;;;;;;50.80;45.20;;;;;;;;5169103;28;8805;-75
2022/12/30 14:33:07;;;;;;;;;71.40;58.40;;;;;;;;5184949;28;8806;-78
2022/12/30 14:35:49;;;;;;;;;55.60;48.80;;;;;;;;5168354;28;8791;-78
2022/12/30 14:38:28;;;;;;;;;53.60;45.00;;;;;;;;5169543;28;8795;-76
2022/12/30 14:41:01;;;;;;;;;86.00;66.40;;;;;;;;5184514;28;8790;-79
2022/12/30 14:43:53;;;;;;;;;92.75;69.00;;;;;;;;5171210;28;9549;-75
2022/12/30 14:46:40;;;;;;;;;75.60;57.00;;;;;;;;5168650;28;8833;-75
2022/12/30 14:49:30;;;;;;;;;85.00;62.50;;;;;;;;5185390;28;9482;-78
2022/12/30 14:52:04;;;;;;;;;71.00;56.80;;;;;;;;5170066;28;8791;-76
2022/12/30 14:54:35;;;;;;;;;56.60;49.40;;;;;;;;5184581;28;8811;-74
2022/12/30 14:57:17;;;;;;;;;59.25;52.00;;;;;;;;5185073;28;8833;-75
2022/12/30 14:59:51;;;;;;;;;47.60;44.60;;;;;;;;5187186;28;8807;-74
2022/12/30 15:02:23;;;;;;;;;80.80;63.60;;;;;;;;5155820;28;8783;-74
2022/12/30 15:05:06;;;;;;;;;84.20;64.20;;;;;;;;5185637;28;8835;-74
2022/12/30 15:07:38;;;;;;;;;73.20;60.00;;;;;;;;5168618;28;8825;-74
2022/12/30 15:10:47;;;;;;;;;58.80;49.00;;;;;;;;5184266;28;8807;-75
2022/12/30 15:13:20;;;;;;;;;66.40;55.80;;;;;;;;5100804;28;8828;-75
2022/12/30 15:15:53;;;;;;;;;64.80;52.40;;;;;;;;5176814;28;8826;-74
2022/12/30 15:18:56;;;;;;;;;41.40;39.20;;;;;;;;5205615;28;8791;-75
2022/12/30 15:21:49;;;;;;;;;59.40;48.80;;;;;;;;5203041;28;8785;-76
2022/12/30 15:24:20;;;;;;;;;59.80;50.20;;;;;;;;5187776;28;8824;-73
2022/12/30 15:26:52;;;;;;;;;52.20;46.00;;;;;;;;5206125;28;8804;-73
2022/12/30 15:29:23;;;;;;;;;48.20;45.00;;;;;;;;5222788;28;8810;-76
2022/12/30 15:31:55;;;;;;;;;35.75;31.50;;;;;;;;5209948;28;8772;-76
2022/12/30 15:34:31;;;;;;;;;48.40;45.00;;;;;;;;5208611;28;8804;-76
2022/12/30 15:37:23;;;;;;;;;45.20;43.00;;;;;;;;5204462;28;9515;-74
2022/12/30 15:39:58;;;;;;;;;81.60;58.00;;;;;;;;5203964;28;8792;-76
2022/12/30 15:42:41;;;;;;;;;65.00;54.60;;;;;;;;5187989;28;8846;-76
2022/12/30 15:45:32;;;;;;;;;73.00;58.80;;;;;;;;5204066;28;9585;-75
2022/12/30 15:56:49;;;;;;;;;52.20;46.00;;;;;;;;5225794;28;8726;-77
2022/12/30 15:59:22;;;;;;;;;47.80;45.80;;;;;;;;5241388;28;8782;-78
2022/12/30 16:06:17;;;;;;;;;22.40;22.40;;;;;;;;5225520;28;8762;-78
2022/12/30 16:13:26;;;;;;;;;30.00;25.00;;;;;;;;5225252;28;8790;-80
2022/12/30 16:16:01;;;;;;;;;65.00;51.60;;;;;;;;5208221;28;8812;-77
2022/12/30 16:18:34;;;;;;;;;59.60;49.00;;;;;;;;5208254;28;9485;-78
2022/12/30 16:21:06;;;;;;;;;70.60;51.40;;;;;;;;5208163;28;8947;-77
2022/12/30 16:23:39;;;;;;;;;44.00;40.20;;;;;;;;5211896;28;9488;-77
2022/12/30 16:26:42;;;;;;;;;50.40;45.20;;;;;;;;5228836;28;8865;-76
2022/12/30 16:29:18;;;;;;;;;42.40;29.80;;;;;;;;5152917;28;8786;-78
2022/12/30 16:32:19;;;;;;;;;84.40;60.80;;;;;;;;5215038;28;8863;-76
2022/12/30 16:34:51;;;;;;;;;88.00;61.75;;;;;;;;5230145;28;8790;-80
2022/12/30 16:37:24;;;;;;;;;35.20;33.40;;;;;;;;5232956;28;8793;-77
2022/12/30 16:40:05;;;;;;;;;55.80;47.20;;;;;;;;5229454;28;8818;-78
2022/12/30 16:42:55;;;;;;;;;51.40;47.20;;;;;;;;5228760;28;8797;-78
2022/12/30 16:45:44;;;;;;;;;43.40;40.40;;;;;;;;5229073;28;8957;-84
2022/12/30 16:48:16;;;;;;;;;37.60;30.80;;;;;;;;5212103;28;8904;-78
2022/12/30 16:50:47;;;;;;;;;26.40;26.40;;;;;;;;5211570;28;8794;-77
2022/12/30 16:53:38;;;;;;;;;33.40;30.80;;;;;;;;5229338;28;8881;-79
2022/12/30 16:56:09;;;;;;;;;39.00;36.80;;;;;;;;5195743;28;8806;-78
2022/12/30 16:58:40;;;;;;;;;59.80;46.60;;;;;;;;5228320;28;8927;-79
2022/12/30 17:01:12;;;;;;;;;96.00;71.75;;;;;;;;5227983;28;8990;-77
2022/12/30 17:03:44;;;;;;;;;58.20;48.80;;;;;;;;5227374;28;11577;-77
2022/12/30 17:06:34;;;;;;;;;52.40;45.40;;;;;;;;5213592;28;8781;-77
2022/12/30 17:09:05;;;;;;;;;31.80;26.80;;;;;;;;5212170;28;8808;-80
2022/12/30 17:20:57;;;;;;;;;33.60;31.80;;;;;;;;5210555;28;8738;-82
2022/12/30 17:23:30;;;;;;;;;32.80;32.00;;;;;;;;5175011;28;9601;-79
2022/12/30 17:26:01;;;;;;;;;24.60;23.80;;;;;;;;5190693;28;8789;-84
2022/12/30 17:28:33;;;;;;;;;30.00;30.00;;;;;;;;5158540;28;8785;-77
2022/12/30 17:31:24;;;;;;;;;31.00;31.00;;;;;;;;5178593;28;8786;-83
2022/12/30 17:33:57;;;;;;;;;32.40;29.00;;;;;;;;5193017;28;8788;-85
2022/12/30 17:36:29;;;;;;;;;22.60;21.80;;;;;;;;5191617;28;8793;-81
2022/12/30 17:39:00;;;;;;;;;28.60;28.20;;;;;;;;5176046;28;8795;-80
2022/12/30 17:41:31;;;;;;;;;19.00;18.80;;;;;;;;5157732;28;8987;-71
2022/12/30 17:44:03;;;;;;;;;21.00;21.00;;;;;;;;5173569;28;8839;-73
2022/12/30 17:46:36;;;;;;;;;35.20;33.60;;;;;;;;5157462;28;9332;-72
2022/12/30 17:49:08;;;;;;;;;28.40;26.40;;;;;;;;5189783;28;8800;-76
2022/12/30 17:51:42;;;;;;;;;39.00;36.60;;;;;;;;5173797;28;8782;-78
2022/12/30 17:54:13;;;;;;;;;71.20;59.60;;;;;;;;5174032;28;8781;-78
2022/12/30 17:56:44;;;;;;;;;47.20;41.80;;;;;;;;5157539;28;8801;-78
2022/12/30 17:59:15;;;;;;;;;46.60;44.60;;;;;;;;5192983;28;8848;-79
2022/12/30 18:02:05;;;;;;;;;50.80;47.60;;;;;;;;5189872;28;8806;-76
2022/12/30 18:04:36;;;;;;;;;45.40;43.60;;;;;;;;5157213;28;8825;-78
2022/12/30 18:07:07;;;;;;;;;34.50;33.25;;;;;;;;5158268;28;8781;-77